createdAt,value
2017-04-12T00:00:13.148Z,19.48
2017-04-12T00:00:53.725Z,19.48
2017-04-12T00:01:34.310Z,19.55
2017-04-12T00:02:14.890Z,19.51
2017-04-12T00:02:55.468Z,19.48
2017-04-12T00:03:36.060Z,19.5
2017-04-12T00:04:16.640Z,19.58
2017-04-12T00:04:57.219Z,19.51
2017-04-12T00:05:37.798Z,19.44
2017-04-12T00:06:18.381Z,19.56
2017-04-12T00:06:58.965Z,19.55
2017-04-12T00:07:39.537Z,19.56
2017-04-12T00:08:20.118Z,19.51
2017-04-12T00:09:00.702Z,19.48
2017-04-12T00:09:41.289Z,19.55
2017-04-12T00:10:21.871Z,19.43
2017-04-12T00:11:02.452Z,19.5
2017-04-12T00:11:43.030Z,19.43
2017-04-12T00:12:23.616Z,19.44
2017-04-12T00:13:04.189Z,19.48
2017-04-12T00:13:44.778Z,19.44
2017-04-12T00:14:25.362Z,19.4
2017-04-12T00:15:05.949Z,19.44
2017-04-12T00:15:46.532Z,19.48
2017-04-12T00:16:27.096Z,19.44
2017-04-12T00:17:07.674Z,19.47
2017-04-12T00:17:48.249Z,19.47
2017-04-12T00:18:28.817Z,19.39
2017-04-12T00:19:09.399Z,19.55
2017-04-12T00:19:49.984Z,19.46
2017-04-12T00:20:30.564Z,19.36
2017-04-12T00:21:11.143Z,19.44
2017-04-12T00:21:51.711Z,19.5
2017-04-12T00:22:32.287Z,19.46
2017-04-12T00:23:12.853Z,19.44
2017-04-12T00:23:53.434Z,19.41
2017-04-12T00:24:34.016Z,19.44
2017-04-12T00:25:14.595Z,19.47
2017-04-12T00:25:56.247Z,19.41
2017-04-12T00:26:36.828Z,19.4
2017-04-12T00:27:17.404Z,19.39
2017-04-12T00:27:57.989Z,19.47
2017-04-12T00:28:38.570Z,19.41
2017-04-12T00:29:19.154Z,19.37
2017-04-12T00:29:59.726Z,19.44
2017-04-12T00:30:40.310Z,19.41
2017-04-12T00:31:20.889Z,19.46
2017-04-12T00:32:01.473Z,19.46
2017-04-12T00:32:42.055Z,19.46
2017-04-12T00:33:22.646Z,19.44
2017-04-12T00:34:03.228Z,19.46
2017-04-12T00:34:43.802Z,19.46
2017-04-12T00:35:24.384Z,19.41
2017-04-12T00:36:04.958Z,19.44
2017-04-12T00:36:45.524Z,19.41
2017-04-12T00:37:26.118Z,19.47
2017-04-12T00:38:06.701Z,19.43
2017-04-12T00:38:47.286Z,19.46
2017-04-12T00:39:27.844Z,19.43
2017-04-12T00:40:08.420Z,19.46
2017-04-12T00:40:48.992Z,19.37
2017-04-12T00:41:29.573Z,19.47
2017-04-12T00:42:10.158Z,19.47
2017-04-12T00:42:50.736Z,19.47
2017-04-12T00:43:31.315Z,19.4
2017-04-12T00:44:11.896Z,19.4
2017-04-12T00:44:52.481Z,19.47
2017-04-12T00:45:33.055Z,19.5
2017-04-12T00:46:13.641Z,19.43
2017-04-12T00:46:54.221Z,19.4
2017-04-12T00:47:34.818Z,19.43
2017-04-12T00:48:15.388Z,19.44
2017-04-12T00:48:55.976Z,19.48
2017-04-12T00:49:36.558Z,19.48
2017-04-12T00:50:17.146Z,19.44
2017-04-12T00:50:57.725Z,19.48
2017-04-12T00:51:38.305Z,19.44
2017-04-12T00:52:18.884Z,19.47
2017-04-12T00:52:59.465Z,19.5
2017-04-12T00:53:40.051Z,19.4
2017-04-12T00:54:20.636Z,19.41
2017-04-12T00:55:01.219Z,19.43
2017-04-12T00:55:41.797Z,19.46
2017-04-12T00:56:22.382Z,19.46
2017-04-12T00:57:02.962Z,19.44
2017-04-12T00:57:43.568Z,19.46
2017-04-12T00:58:24.109Z,19.41
2017-04-12T00:59:15.359Z,19.37
2017-04-12T00:59:55.940Z,19.47
2017-04-12T01:00:51.358Z,19.41
2017-04-12T01:01:31.941Z,19.43
2017-04-12T01:02:12.525Z,19.41
2017-04-12T01:02:53.110Z,19.48
2017-04-12T01:03:33.691Z,19.46
2017-04-12T01:04:14.279Z,19.47
2017-04-12T01:04:54.855Z,19.41
2017-04-12T01:05:36.254Z,19.43
2017-04-12T01:06:16.694Z,19.47
2017-04-12T01:06:57.276Z,19.43
2017-04-12T01:07:37.853Z,19.37
2017-04-12T01:08:18.434Z,19.36
2017-04-12T01:08:59.017Z,19.43
2017-04-12T01:09:39.604Z,19.4
2017-04-12T01:10:20.184Z,19.43
2017-04-12T01:11:00.763Z,19.44
2017-04-12T01:11:41.352Z,19.44
2017-04-12T01:12:21.934Z,19.41
2017-04-12T01:13:02.509Z,19.41
2017-04-12T01:13:43.094Z,19.41
2017-04-12T01:14:23.661Z,19.47
2017-04-12T01:15:04.244Z,19.41
2017-04-12T01:15:44.828Z,19.48
2017-04-12T01:16:25.405Z,19.37
2017-04-12T01:17:05.994Z,19.4
2017-04-12T01:17:46.569Z,19.44
2017-04-12T01:18:27.152Z,19.44
2017-04-12T01:19:07.732Z,19.37
2017-04-12T01:19:48.319Z,19.36
2017-04-12T01:20:28.910Z,19.47
2017-04-12T01:21:09.481Z,19.44
2017-04-12T01:21:50.063Z,19.4
2017-04-12T01:22:30.650Z,19.4
2017-04-12T01:23:11.223Z,19.36
2017-04-12T01:23:51.810Z,19.48
2017-04-12T01:24:32.394Z,19.47
2017-04-12T01:25:12.978Z,19.47
2017-04-12T01:25:53.558Z,19.43
2017-04-12T01:26:34.141Z,19.43
2017-04-12T01:27:14.719Z,19.46
2017-04-12T01:27:55.306Z,19.47
2017-04-12T01:28:35.884Z,19.44
2017-04-12T01:29:16.467Z,19.41
2017-04-12T01:29:57.039Z,19.46
2017-04-12T01:30:37.627Z,19.4
2017-04-12T01:31:18.209Z,19.41
2017-04-12T01:31:58.776Z,19.44
2017-04-12T01:32:39.365Z,19.41
2017-04-12T01:33:19.947Z,19.41
2017-04-12T01:34:00.524Z,19.44
2017-04-12T01:34:41.110Z,19.46
2017-04-12T01:35:21.680Z,19.47
2017-04-12T01:36:02.266Z,19.46
2017-04-12T01:36:42.853Z,19.37
2017-04-12T01:37:23.431Z,19.43
2017-04-12T01:38:04.013Z,19.4
2017-04-12T01:38:44.596Z,19.47
2017-04-12T01:39:25.180Z,19.4
2017-04-12T01:40:05.762Z,19.47
2017-04-12T01:41:43.118Z,19.47
2017-04-12T01:42:23.705Z,19.46
2017-04-12T01:43:04.280Z,19.4
2017-04-12T01:43:44.851Z,19.37
2017-04-12T01:44:25.429Z,19.41
2017-04-12T01:45:06.012Z,19.43
2017-04-12T01:45:46.606Z,19.41
2017-04-12T01:46:27.184Z,19.47
2017-04-12T01:47:07.755Z,19.4
2017-04-12T01:47:48.343Z,19.43
2017-04-12T01:48:28.934Z,19.41
2017-04-12T01:49:09.507Z,19.46
2017-04-12T01:49:50.082Z,19.41
2017-04-12T01:50:30.665Z,19.39
2017-04-12T01:51:11.242Z,19.46
2017-04-12T01:51:51.829Z,19.4
2017-04-12T01:52:32.412Z,19.43
2017-04-12T01:53:12.993Z,19.33
2017-04-12T01:53:53.578Z,19.44
2017-04-12T01:54:34.155Z,19.4
2017-04-12T01:55:14.726Z,19.4
2017-04-12T01:55:55.299Z,19.41
2017-04-12T01:56:35.876Z,19.4
2017-04-12T01:57:16.446Z,19.33
2017-04-12T01:57:57.028Z,19.37
2017-04-12T01:58:37.619Z,19.39
2017-04-12T01:59:18.192Z,19.39
2017-04-12T01:59:58.776Z,19.39
2017-04-12T02:00:39.357Z,19.37
2017-04-12T02:01:19.938Z,19.4
2017-04-12T02:02:00.515Z,19.39
2017-04-12T02:02:58.101Z,19.36
2017-04-12T02:03:38.686Z,19.41
2017-04-12T02:04:19.268Z,19.36
2017-04-12T02:04:59.847Z,19.4
2017-04-12T02:05:40.428Z,19.37
2017-04-12T02:06:21.021Z,19.4
2017-04-12T02:07:01.606Z,19.43
2017-04-12T02:07:42.179Z,19.43
2017-04-12T02:08:22.760Z,19.37
2017-04-12T02:09:03.345Z,19.31
2017-04-12T02:09:43.927Z,19.37
2017-04-12T02:10:24.506Z,19.39
2017-04-12T02:11:05.089Z,19.36
2017-04-12T02:13:02.810Z,19.4
2017-04-12T02:13:43.391Z,19.4
2017-04-12T02:14:23.972Z,19.41
2017-04-12T02:15:04.557Z,19.37
2017-04-12T02:15:45.138Z,19.4
2017-04-12T02:16:25.720Z,19.4
2017-04-12T02:17:06.304Z,19.4
2017-04-12T02:17:46.890Z,19.4
2017-04-12T02:18:27.468Z,19.47
2017-04-12T02:19:08.052Z,19.4
2017-04-12T02:19:48.619Z,19.31
2017-04-12T02:20:29.200Z,19.39
2017-04-12T02:21:09.782Z,19.39
2017-04-12T02:21:50.350Z,19.41
2017-04-12T02:22:31.041Z,19.4
2017-04-12T02:23:11.616Z,19.37
2017-04-12T02:23:52.192Z,19.4
2017-04-12T02:24:32.773Z,19.43
2017-04-12T02:25:13.336Z,19.39
2017-04-12T02:25:53.902Z,19.39
2017-04-12T02:26:34.479Z,19.43
2017-04-12T02:27:15.067Z,19.39
2017-04-12T02:27:55.645Z,19.37
2017-04-12T02:28:36.222Z,19.4
2017-04-12T02:29:16.806Z,19.36
2017-04-12T02:30:11.915Z,19.4
2017-04-12T02:30:52.496Z,19.41
2017-04-12T02:31:33.079Z,19.43
2017-04-12T02:32:13.664Z,19.4
2017-04-12T02:32:54.230Z,19.39
2017-04-12T02:33:34.808Z,19.43
2017-04-12T02:34:15.393Z,19.4
2017-04-12T02:34:55.978Z,19.41
2017-04-12T02:35:36.559Z,19.44
2017-04-12T02:37:29.168Z,19.41
2017-04-12T02:38:09.746Z,19.4
2017-04-12T02:38:50.325Z,19.37
2017-04-12T02:39:30.903Z,19.46
2017-04-12T02:40:11.483Z,19.4
2017-04-12T02:40:52.059Z,19.4
2017-04-12T02:41:32.647Z,19.43
2017-04-12T02:42:13.226Z,19.41
2017-04-12T02:42:53.804Z,19.33
2017-04-12T02:43:34.385Z,19.33
2017-04-12T02:44:14.964Z,19.4
2017-04-12T02:44:55.545Z,19.44
2017-04-12T02:45:36.114Z,19.43
2017-04-12T02:46:16.689Z,19.47
2017-04-12T02:46:57.266Z,19.46
2017-04-12T02:47:37.853Z,19.43
2017-04-12T02:48:18.432Z,19.43
2017-04-12T02:48:59.015Z,19.43
2017-04-12T02:49:39.921Z,19.47
2017-04-12T02:50:20.497Z,19.44
2017-04-12T02:51:01.062Z,19.39
2017-04-12T02:51:41.648Z,19.46
2017-04-12T02:52:22.230Z,19.4
2017-04-12T02:53:02.807Z,19.43
2017-04-12T02:53:43.384Z,19.39
2017-04-12T02:54:23.967Z,19.44
2017-04-12T02:55:04.535Z,19.37
2017-04-12T02:55:45.115Z,19.46
2017-04-12T02:56:25.698Z,19.44
2017-04-12T02:57:06.271Z,19.47
2017-04-12T02:57:46.856Z,19.43
2017-04-12T02:58:27.437Z,19.44
2017-04-12T02:59:08.007Z,19.4
2017-04-12T02:59:48.590Z,19.39
2017-04-12T03:00:29.176Z,19.43
2017-04-12T03:01:09.766Z,19.44
2017-04-12T03:01:50.338Z,19.39
2017-04-12T03:02:30.932Z,19.46
2017-04-12T03:03:11.517Z,19.44
2017-04-12T03:03:52.099Z,19.36
2017-04-12T03:04:32.682Z,19.44
2017-04-12T03:05:13.265Z,19.43
2017-04-12T03:05:53.839Z,19.47
2017-04-12T03:06:34.424Z,19.48
2017-04-12T03:07:15.011Z,19.44
2017-04-12T03:07:55.591Z,19.51
2017-04-12T03:08:36.173Z,19.43
2017-04-12T03:09:16.748Z,19.46
2017-04-12T03:09:57.337Z,19.44
2017-04-12T03:10:37.928Z,19.37
2017-04-12T03:11:18.501Z,19.43
2017-04-12T03:11:59.080Z,19.46
2017-04-12T03:12:39.661Z,19.44
2017-04-12T03:13:20.243Z,19.44
2017-04-12T03:14:00.827Z,19.36
2017-04-12T03:14:41.406Z,19.4
2017-04-12T03:15:21.998Z,19.41
2017-04-12T03:16:02.582Z,19.47
2017-04-12T03:16:43.175Z,19.46
2017-04-12T03:17:23.759Z,19.43
2017-04-12T03:18:04.336Z,19.46
2017-04-12T03:18:44.910Z,19.46
2017-04-12T03:19:25.490Z,19.5
2017-04-12T03:20:06.116Z,19.48
2017-04-12T03:20:46.765Z,19.51
2017-04-12T03:21:27.346Z,19.47
2017-04-12T03:22:07.930Z,19.5
2017-04-12T03:22:48.514Z,19.51
2017-04-12T03:23:34.974Z,19.54
2017-04-12T03:24:15.571Z,19.48
2017-04-12T03:24:56.145Z,19.58
2017-04-12T03:25:36.900Z,19.55
2017-04-12T03:26:17.584Z,19.51
2017-04-12T03:26:58.349Z,19.51
2017-04-12T03:27:39.146Z,19.54
2017-04-12T03:28:19.959Z,19.47
2017-04-12T03:29:00.801Z,19.48
2017-04-12T03:29:41.611Z,19.56
2017-04-12T03:30:22.492Z,19.5
2017-04-12T03:31:03.075Z,19.48
2017-04-12T03:31:44.102Z,19.56
2017-04-12T03:32:24.865Z,19.54
2017-04-12T03:33:05.522Z,19.56
2017-04-12T03:33:46.181Z,19.54
2017-04-12T03:34:27.168Z,19.56
2017-04-12T03:35:08.040Z,19.54
2017-04-12T03:35:48.615Z,19.54
2017-04-12T03:36:29.188Z,19.41
2017-04-12T03:37:10.242Z,19.5
2017-04-12T03:37:51.161Z,19.54
2017-04-12T03:38:31.928Z,19.51
2017-04-12T03:39:12.515Z,19.56
2017-04-12T03:39:53.091Z,19.54
2017-04-12T03:40:33.980Z,19.48
2017-04-12T03:41:15.077Z,19.61
2017-04-12T03:41:56.164Z,19.51
2017-04-12T03:42:37.358Z,19.56
2017-04-12T03:43:18.027Z,19.5
2017-04-12T03:43:58.612Z,19.51
2017-04-12T03:44:39.871Z,19.54
2017-04-12T03:45:20.848Z,19.48
2017-04-12T03:46:01.605Z,19.51
2017-04-12T03:46:42.317Z,19.46
2017-04-12T03:47:22.887Z,19.61
2017-04-12T03:48:03.463Z,19.51
2017-04-12T03:48:44.046Z,19.51
2017-04-12T03:49:24.998Z,19.55
2017-04-12T03:50:05.570Z,19.54
2017-04-12T03:50:46.154Z,19.54
2017-04-12T03:51:26.739Z,19.58
2017-04-12T03:52:07.312Z,19.55
2017-04-12T03:52:47.898Z,19.51
2017-04-12T03:53:28.479Z,19.46
2017-04-12T03:54:09.064Z,19.39
2017-04-12T03:54:49.641Z,19.22
2017-04-12T03:55:30.229Z,19.21
2017-04-12T03:56:10.801Z,19.11
2017-04-12T03:56:51.383Z,19.08
2017-04-12T03:57:31.963Z,18.87
2017-04-12T03:58:12.542Z,18.75
2017-04-12T03:58:53.130Z,18.66
2017-04-12T03:59:33.698Z,18.54
2017-04-12T04:00:14.283Z,18.32
2017-04-12T04:00:54.865Z,18.32
2017-04-12T04:01:35.441Z,18.21
2017-04-12T04:02:16.025Z,17.96
2017-04-12T04:02:56.596Z,17.95
2017-04-12T04:03:37.176Z,17.84
2017-04-12T04:04:17.759Z,17.81
2017-04-12T04:04:58.330Z,17.7
2017-04-12T04:05:38.925Z,17.63
2017-04-12T04:06:19.502Z,17.51
2017-04-12T04:07:00.085Z,17.46
2017-04-12T04:08:57.787Z,17.3
2017-04-12T04:09:38.358Z,17.07
2017-04-12T04:10:18.933Z,17.08
2017-04-12T04:10:59.523Z,17.04
2017-04-12T04:11:40.101Z,16.97
2017-04-12T04:12:20.683Z,16.86
2017-04-12T04:13:01.266Z,16.81
2017-04-12T04:13:41.841Z,16.76
2017-04-12T04:15:19.188Z,16.56
2017-04-12T04:15:59.768Z,16.63
2017-04-12T04:16:40.341Z,16.49
2017-04-12T04:17:20.926Z,16.46
2017-04-12T04:18:01.501Z,16.27
2017-04-12T04:18:56.960Z,16.24
2017-04-12T04:19:37.537Z,16.23
2017-04-12T04:20:18.116Z,16.11
2017-04-12T04:20:58.698Z,16.11
2017-04-12T04:21:39.273Z,16.09
2017-04-12T04:22:19.847Z,16.08
2017-04-12T04:23:00.427Z,16.07
2017-04-12T04:23:41.004Z,15.94
2017-04-12T04:24:21.592Z,15.89
2017-04-12T04:25:02.176Z,15.84
2017-04-12T04:25:42.753Z,15.76
2017-04-12T04:26:23.333Z,15.82
2017-04-12T04:27:04.810Z,15.71
2017-04-12T04:27:45.378Z,15.74
2017-04-12T04:28:25.952Z,15.64
2017-04-12T04:29:06.530Z,15.68
2017-04-12T04:29:47.111Z,15.68
2017-04-12T04:30:27.689Z,15.68
2017-04-12T04:31:08.261Z,15.72
2017-04-12T04:31:48.840Z,15.71
2017-04-12T04:32:29.417Z,15.71
2017-04-12T04:33:09.994Z,15.69
2017-04-12T04:33:50.569Z,15.59
2017-04-12T04:34:31.152Z,15.6
2017-04-12T04:35:11.770Z,15.62
2017-04-12T04:35:52.341Z,15.67
2017-04-12T04:36:32.924Z,15.65
2017-04-12T04:37:13.496Z,15.59
2017-04-12T04:37:54.077Z,15.53
2017-04-12T04:38:34.654Z,15.53
2017-04-12T04:39:15.222Z,15.57
2017-04-12T04:39:55.803Z,15.53
2017-04-12T04:40:36.383Z,15.51
2017-04-12T04:41:16.972Z,15.44
2017-04-12T04:41:57.555Z,15.49
2017-04-12T04:42:38.134Z,15.47
2017-04-12T04:43:18.715Z,15.34
2017-04-12T04:43:59.279Z,15.31
2017-04-12T04:44:39.864Z,15.29
2017-04-12T04:45:20.451Z,15.35
2017-04-12T04:46:01.033Z,15.31
2017-04-12T04:46:41.606Z,15.31
2017-04-12T04:47:22.188Z,15.27
2017-04-12T04:48:02.770Z,15.21
2017-04-12T04:48:43.349Z,15.2
2017-04-12T04:49:23.923Z,15.21
2017-04-12T04:50:04.487Z,15.23
2017-04-12T04:50:45.079Z,15.21
2017-04-12T04:51:25.651Z,15.16
2017-04-12T04:52:21.088Z,15.14
2017-04-12T04:53:01.663Z,15.19
2017-04-12T04:53:42.252Z,15.16
2017-04-12T04:54:22.824Z,15.17
2017-04-12T04:55:03.399Z,15.16
2017-04-12T04:55:43.981Z,15.13
2017-04-12T04:56:24.568Z,15.09
2017-04-12T04:57:05.143Z,15.17
2017-04-12T04:57:45.719Z,15.16
2017-04-12T04:58:26.300Z,15.13
2017-04-12T04:59:06.880Z,15.19
2017-04-12T04:59:47.453Z,15.11
2017-04-12T05:00:28.026Z,15.19
2017-04-12T05:01:08.600Z,15.14
2017-04-12T05:01:49.184Z,15.23
2017-04-12T05:02:29.751Z,15.19
2017-04-12T05:03:10.342Z,15.29
2017-04-12T05:03:50.921Z,15.27
2017-04-12T05:04:31.494Z,15.34
2017-04-12T05:05:12.077Z,15.35
2017-04-12T05:05:52.663Z,15.39
2017-04-12T05:07:45.271Z,15.47
2017-04-12T05:08:25.839Z,15.51
2017-04-12T05:09:06.429Z,15.51
2017-04-12T05:09:46.986Z,15.51
2017-04-12T05:11:24.323Z,15.44
2017-04-12T05:12:04.892Z,15.35
2017-04-12T05:12:45.476Z,15.46
2017-04-12T05:13:26.053Z,15.49
2017-04-12T05:14:06.625Z,15.6
2017-04-12T05:14:47.217Z,15.65
2017-04-12T05:15:27.796Z,15.67
2017-04-12T05:16:08.368Z,15.67
2017-04-12T05:16:48.955Z,15.68
2017-04-12T05:17:29.533Z,15.68
2017-04-12T05:18:10.103Z,15.71
2017-04-12T05:18:50.684Z,15.67
2017-04-12T05:19:31.261Z,15.68
2017-04-12T05:20:11.847Z,15.67
2017-04-12T05:20:52.425Z,15.68
2017-04-12T05:21:33.002Z,15.71
2017-04-12T05:22:13.586Z,15.69
2017-04-12T05:24:06.423Z,15.57
2017-04-12T05:24:47.002Z,15.62
2017-04-12T05:25:27.583Z,15.6
2017-04-12T05:26:08.162Z,15.62
2017-04-12T05:26:48.744Z,15.59
2017-04-12T05:27:29.318Z,15.67
2017-04-12T05:28:09.905Z,15.6
2017-04-12T05:28:50.488Z,15.56
2017-04-12T05:29:31.059Z,15.64
2017-04-12T05:30:11.642Z,15.59
2017-04-12T05:30:52.217Z,15.57
2017-04-12T05:31:32.794Z,15.67
2017-04-12T05:32:13.374Z,15.62
2017-04-12T05:32:53.945Z,15.64
2017-04-12T05:33:34.520Z,15.67
2017-04-12T05:34:30.951Z,15.71
2017-04-12T05:35:11.525Z,15.57
2017-04-12T05:35:52.102Z,15.67
2017-04-12T05:36:32.682Z,15.62
2017-04-12T05:37:13.263Z,15.72
2017-04-12T05:37:53.841Z,15.72
2017-04-12T05:38:34.421Z,15.82
2017-04-12T05:39:14.982Z,15.86
2017-04-12T05:39:55.565Z,15.97
2017-04-12T05:40:36.145Z,16.12
2017-04-12T05:41:16.724Z,16.15
2017-04-12T05:41:57.306Z,16.42
2017-04-12T05:42:37.880Z,16.56
2017-04-12T05:43:18.456Z,16.64
2017-04-12T05:43:59.034Z,16.76
2017-04-12T05:44:39.613Z,16.78
2017-04-12T05:45:20.200Z,16.94
2017-04-12T05:46:00.781Z,17.11
2017-04-12T05:46:41.354Z,17.28
2017-04-12T05:47:21.947Z,17.31
2017-04-12T05:48:02.528Z,17.43
2017-04-12T05:48:43.099Z,17.52
2017-04-12T05:49:23.679Z,17.66
2017-04-12T05:50:04.266Z,17.81
2017-04-12T05:50:59.698Z,17.78
2017-04-12T05:51:40.270Z,17.92
2017-04-12T05:52:20.851Z,18.02
2017-04-12T05:53:01.433Z,18.03
2017-04-12T05:53:42.017Z,18.1
2017-04-12T05:54:22.599Z,18.12
2017-04-12T05:55:03.183Z,18.18
2017-04-12T05:55:43.764Z,18.36
2017-04-12T05:56:24.350Z,18.44
2017-04-12T05:57:04.929Z,18.44
2017-04-12T05:57:45.509Z,18.5
2017-04-12T05:58:26.085Z,18.45
2017-04-12T05:59:06.671Z,18.52
2017-04-12T05:59:47.239Z,18.58
2017-04-12T06:00:42.701Z,18.7
2017-04-12T06:01:23.274Z,18.69
2017-04-12T06:02:03.857Z,18.78
2017-04-12T06:02:44.440Z,18.73
2017-04-12T06:03:25.023Z,18.82
2017-04-12T06:04:05.602Z,18.87
2017-04-12T06:04:46.176Z,18.88
2017-04-12T06:05:26.757Z,18.99
2017-04-12T06:06:07.334Z,18.98
2017-04-12T06:06:47.911Z,19.02
2017-04-12T06:07:28.492Z,18.98
2017-04-12T06:08:09.083Z,19.08
2017-04-12T06:08:49.665Z,19.06
2017-04-12T06:09:30.246Z,19.13
2017-04-12T06:10:10.834Z,19.28
2017-04-12T06:10:51.412Z,19.32
2017-04-12T06:11:31.982Z,19.41
2017-04-12T06:12:12.561Z,19.5
2017-04-12T06:12:53.152Z,19.59
2017-04-12T06:13:33.726Z,19.74
2017-04-12T06:14:14.309Z,19.8
2017-04-12T06:14:54.890Z,19.91
2017-04-12T06:15:35.470Z,20.17
2017-04-12T06:16:16.049Z,20.32
2017-04-12T06:16:56.650Z,20.47
2017-04-12T06:17:37.208Z,20.62
2017-04-12T06:18:17.786Z,20.92
2017-04-12T06:18:58.370Z,21.14
2017-04-12T06:19:38.952Z,21.37
2017-04-12T06:20:19.538Z,21.64
2017-04-12T06:21:00.117Z,21.84
2017-04-12T06:21:40.697Z,22
2017-04-12T06:22:21.277Z,22.22
2017-04-12T06:23:01.854Z,22.27
2017-04-12T06:23:42.428Z,22.37
2017-04-12T06:24:22.999Z,22.42
2017-04-12T06:25:03.578Z,22.49
2017-04-12T06:25:44.156Z,22.54
2017-04-12T06:26:24.744Z,22.52
2017-04-12T06:27:05.324Z,22.54
2017-04-12T06:27:45.890Z,22.64
2017-04-12T06:28:26.470Z,22.51
2017-04-12T06:29:07.051Z,22.61
2017-04-12T06:29:47.657Z,22.65
2017-04-12T06:30:28.209Z,22.73
2017-04-12T06:31:08.789Z,22.75
2017-04-12T06:31:49.364Z,22.7
2017-04-12T06:32:29.949Z,22.85
2017-04-12T06:33:10.537Z,22.88
2017-04-12T06:33:51.119Z,22.86
2017-04-12T06:34:31.702Z,23.02
2017-04-12T06:35:12.287Z,22.97
2017-04-12T06:35:52.849Z,23.12
2017-04-12T06:36:33.424Z,23.1
2017-04-12T06:37:14.002Z,23.1
2017-04-12T06:37:54.572Z,23.12
2017-04-12T06:38:35.144Z,23.16
2017-04-12T06:39:15.725Z,23.22
2017-04-12T06:39:56.314Z,23.17
2017-04-12T06:40:36.889Z,23.28
2017-04-12T06:41:17.477Z,23.27
2017-04-12T06:41:58.059Z,23.54
2017-04-12T06:42:38.638Z,23.47
2017-04-12T06:43:19.233Z,23.55
2017-04-12T06:43:59.812Z,23.66
2017-04-12T06:44:40.396Z,23.84
2017-04-12T06:45:20.982Z,23.9
2017-04-12T06:46:01.564Z,24.09
2017-04-12T06:46:42.150Z,24.06
2017-04-12T06:47:22.720Z,24.25
2017-04-12T06:48:03.311Z,24.42
2017-04-12T06:48:43.885Z,24.53
2017-04-12T06:49:24.472Z,25.09
2017-04-12T06:50:05.053Z,25.33
2017-04-12T06:50:45.635Z,25.82
2017-04-12T06:51:26.219Z,25.9
2017-04-12T06:52:06.797Z,26.48
2017-04-12T06:52:47.374Z,26.95
2017-04-12T06:53:27.958Z,27.25
2017-04-12T06:54:08.531Z,27.6
2017-04-12T06:56:06.250Z,28.51
2017-04-12T06:56:46.831Z,28.74
2017-04-12T06:57:27.411Z,29.02
2017-04-12T06:58:07.990Z,29.06
2017-04-12T06:58:48.562Z,28.95
2017-04-12T06:59:29.143Z,28.96
2017-04-12T07:00:09.732Z,28.86
2017-04-12T07:00:50.314Z,28.8
2017-04-12T07:01:30.892Z,28.73
2017-04-12T07:02:11.481Z,28.52
2017-04-12T07:02:52.066Z,28.41
2017-04-12T07:03:32.632Z,28.39
2017-04-12T07:04:13.218Z,28.27
2017-04-12T07:04:53.805Z,28.29
2017-04-12T07:05:34.378Z,28.24
2017-04-12T07:06:14.955Z,28.04
2017-04-12T07:06:55.539Z,28
2017-04-12T07:07:36.126Z,27.92
2017-04-12T07:08:16.718Z,27.79
2017-04-12T07:08:57.294Z,27.75
2017-04-12T07:09:37.886Z,27.7
2017-04-12T07:10:18.465Z,27.74
2017-04-12T07:10:59.052Z,27.63
2017-04-12T07:11:39.634Z,27.62
2017-04-12T07:12:20.216Z,27.67
2017-04-12T07:13:00.804Z,27.54
2017-04-12T07:13:41.384Z,27.5
2017-04-12T07:14:21.965Z,27.43
2017-04-12T07:15:02.550Z,27.31
2017-04-12T07:15:43.140Z,27.22
2017-04-12T07:16:23.725Z,27.19
2017-04-12T07:17:04.316Z,26.99
2017-04-12T07:17:44.904Z,26.95
2017-04-12T07:18:25.486Z,26.99
2017-04-12T07:19:06.079Z,26.92
2017-04-12T07:19:46.650Z,26.82
2017-04-12T07:20:27.231Z,26.75
2017-04-12T07:21:07.817Z,26.73
2017-04-12T07:21:48.397Z,26.77
2017-04-12T07:22:28.977Z,26.73
2017-04-12T07:23:09.560Z,26.66
2017-04-12T07:25:07.276Z,26.66
2017-04-12T07:25:47.855Z,26.75
2017-04-12T07:26:28.442Z,26.84
2017-04-12T07:27:09.025Z,26.92
2017-04-12T07:27:49.592Z,27.12
2017-04-12T07:28:30.166Z,27.25
2017-04-12T07:29:10.761Z,27.55
2017-04-12T07:29:51.345Z,27.6
2017-04-12T07:30:31.918Z,27.72
2017-04-12T07:31:12.498Z,27.97
2017-04-12T07:31:53.089Z,27.99
2017-04-12T07:32:33.675Z,28.14
2017-04-12T07:33:14.250Z,28.27
2017-04-12T07:33:54.839Z,28.4
2017-04-12T07:34:35.412Z,28.43
2017-04-12T07:35:15.998Z,28.36
2017-04-12T07:35:56.582Z,28.41
2017-04-12T07:36:37.162Z,28.43
2017-04-12T07:37:17.735Z,28.29
2017-04-12T07:37:58.318Z,28.29
2017-04-12T07:38:38.903Z,28.3
2017-04-12T07:39:19.484Z,28.34
2017-04-12T07:40:00.073Z,28.43
2017-04-12T07:40:40.656Z,28.56
2017-04-12T07:41:21.246Z,28.7
2017-04-12T07:42:01.830Z,28.9
2017-04-12T07:42:42.411Z,29.18
2017-04-12T07:43:23.002Z,29.48
2017-04-12T07:44:03.587Z,29.64
2017-04-12T07:44:44.172Z,29.94
2017-04-12T07:45:24.747Z,30.2
2017-04-12T07:46:05.336Z,30.22
2017-04-12T07:46:45.919Z,30.42
2017-04-12T07:47:26.512Z,30.61
2017-04-12T07:48:07.090Z,30.82
2017-04-12T07:48:47.672Z,30.97
2017-04-12T07:49:28.251Z,31.09
2017-04-12T07:50:08.842Z,31.26
2017-04-12T07:50:49.429Z,31.46
2017-04-12T07:51:30.010Z,31.62
2017-04-12T07:52:10.597Z,31.88
2017-04-12T07:52:51.184Z,32.01
2017-04-12T07:53:31.769Z,32.14
2017-04-12T07:54:12.353Z,32.47
2017-04-12T07:54:52.942Z,32.6
2017-04-12T07:55:33.528Z,32.93
2017-04-12T07:56:14.113Z,33.21
2017-04-12T07:56:54.696Z,33.39
2017-04-12T07:57:35.283Z,33.61
2017-04-12T07:58:15.862Z,33.79
2017-04-12T07:58:56.448Z,33.81
2017-04-12T07:59:37.026Z,33.76
2017-04-12T08:01:14.386Z,33.51
2017-04-12T08:01:54.970Z,33.5
2017-04-12T08:02:35.560Z,33.31
2017-04-12T08:03:16.148Z,33.03
2017-04-12T08:03:56.732Z,32.77
2017-04-12T08:04:37.316Z,32.45
2017-04-12T08:05:17.899Z,32.11
2017-04-12T08:05:58.490Z,32.03
2017-04-12T08:06:39.073Z,31.86
2017-04-12T08:07:19.656Z,31.65
2017-04-12T08:08:00.248Z,31.46
2017-04-12T08:08:40.831Z,31.43
2017-04-12T08:09:21.410Z,31.32
2017-04-12T08:10:01.982Z,31.13
2017-04-12T08:10:42.568Z,31.07
2017-04-12T08:11:23.149Z,30.89
2017-04-12T08:12:03.736Z,30.88
2017-04-12T08:12:44.324Z,30.75
2017-04-12T08:13:24.910Z,30.86
2017-04-12T08:14:05.496Z,30.86
2017-04-12T08:14:46.071Z,31.13
2017-04-12T08:15:26.648Z,31.29
2017-04-12T08:16:07.229Z,31.38
2017-04-12T08:16:47.815Z,31.44
2017-04-12T08:17:28.394Z,31.58
2017-04-12T08:18:08.981Z,31.68
2017-04-12T08:18:49.561Z,31.86
2017-04-12T08:19:30.148Z,32.11
2017-04-12T08:20:10.726Z,32.37
2017-04-12T08:20:51.310Z,32.65
2017-04-12T08:21:31.892Z,32.93
2017-04-12T08:22:12.464Z,33.19
2017-04-12T08:22:53.053Z,33.28
2017-04-12T08:23:33.638Z,33.37
2017-04-12T08:24:14.213Z,33.47
2017-04-12T08:24:54.798Z,33.45
2017-04-12T08:25:35.379Z,33.44
2017-04-12T08:26:15.962Z,33.53
2017-04-12T08:26:56.533Z,33.53
2017-04-12T08:27:37.120Z,33.5
2017-04-12T08:28:17.706Z,33.45
2017-04-12T08:30:10.327Z,32.92
2017-04-12T08:30:50.905Z,32.81
2017-04-12T08:31:31.484Z,32.75
2017-04-12T08:32:12.061Z,32.62
2017-04-12T08:32:52.640Z,32.47
2017-04-12T08:33:33.224Z,32.56
2017-04-12T08:34:13.803Z,32.45
2017-04-12T08:34:54.384Z,32.45
2017-04-12T08:35:34.965Z,32.28
2017-04-12T08:36:15.553Z,32.35
2017-04-12T08:36:56.138Z,32.29
2017-04-12T08:37:36.720Z,32.4
2017-04-12T08:38:17.304Z,32.29
2017-04-12T08:38:57.886Z,32.37
2017-04-12T08:39:38.473Z,32.47
2017-04-12T08:40:19.035Z,32.5
2017-04-12T08:40:59.620Z,32.62
2017-04-12T08:41:40.195Z,32.62
2017-04-12T08:42:20.825Z,32.7
2017-04-12T08:43:01.366Z,32.78
2017-04-12T08:43:41.947Z,32.57
2017-04-12T08:44:22.529Z,32.44
2017-04-12T08:45:03.112Z,32.4
2017-04-12T08:45:43.688Z,32.15
2017-04-12T08:46:24.275Z,32.1
2017-04-12T08:47:04.860Z,32
2017-04-12T08:47:45.447Z,31.86
2017-04-12T08:48:26.031Z,31.76
2017-04-12T08:49:06.621Z,31.68
2017-04-12T08:49:47.206Z,31.72
2017-04-12T08:50:27.794Z,31.68
2017-04-12T08:51:08.368Z,31.69
2017-04-12T08:51:48.957Z,31.63
2017-04-12T08:52:29.546Z,31.69
2017-04-12T08:53:10.132Z,31.72
2017-04-12T08:53:50.709Z,31.76
2017-04-12T08:54:31.295Z,31.91
2017-04-12T08:55:11.882Z,31.95
2017-04-12T08:55:52.467Z,32.03
2017-04-12T08:56:33.060Z,32.06
2017-04-12T08:57:13.633Z,32.01
2017-04-12T08:57:54.203Z,32.19
2017-04-12T08:58:34.785Z,32.13
2017-04-12T08:59:15.362Z,32.06
2017-04-12T08:59:55.945Z,32.01
2017-04-12T09:00:36.532Z,32.01